Tiempo atmosférico en la estación meteorológica de Murcia, Murcia (61 m.)



Fecha
DESCASC
Temp. máxima en grados centígrados (hora)
DESCASC
Temp. mínima en grados centígrados (hora)
DESCASC
Temp. media en grados centígrados
DESCASC
Racha de viento máxima en m/sg (hora)
DESCASC
Velocidad máxima media en intervalos de 10 minutos(hora)
DESCASC
Precipitaciones diarias en mm
DESCASC
Precipitaciones de 00:00 a 06:00 en mm
DESCASC
Precipitaciones de 06:00 a 12:00 en mm
DESCASC
Precipitaciones de 12:00 a 18:00 en mm
DESCASC
Precipitaciones de 18:00 a 24:00 en mm
DESCASC
25-04-2019 23.9 (17:40) 11.7 (06:40) 17.8 10.83 (14:30) 6.94 (14:30) 0 0 0 0 0
24-04-2019 21.9 (17:30) 8.2 (07:30) 15 10.28 (16:10) 5.56 (15:10) 0 0 0 0 0
23-04-2019 21.3 (13:30) 12 (08:30) 16.6 9.44 (15:30) 5 (15:00) 0.8 0 0 0.8 0
22-04-2019 19.9 (17:00) 11.7 (00:00) 15.8 8.06 (16:20) 5 (17:00) 1 0.8 0.2 0 0
21-04-2019 16.6 (11:50) 12.7 (00:00) 14.7 7.78 (22:30) 5.28 (22:30) 5.8 0 0 4.2 1.6
20-04-2019 14.2 (14:10) 11.6 (00:00) 12.9 15.83 (07:20) 10 (07:20) 79.4 52.2 18.8 8.2 0.2
19-04-2019 14.8 (14:50) 12 (00:00) 13.4 5.83 (23:59) 3.61 (23:59) 27.8 2 13.4 4.4 8
18-04-2019 18.3 (13:10) 13.9 (00:00) 16.1 10.28 (15:10) 6.67 (15:00) 0.2 0 0 0.2 0
17-04-2019 24.2 (09:20) 15 (00:00) 19.6 10 (16:50) 6.39 (18:10) 0 0 0 0 0
16-04-2019 26 (14:30) 12.5 (00:00) 19.3 11.94 (15:30) 8.06 (15:30) 0 0 0 0 0
15-04-2019 24.5 (15:00) 14.8 (00:00) 19.7 9.44 (13:10) 6.67 (13:10) 0 0 0 0 0
14-04-2019 29.5 (16:20) 9.5 (00:00) 19.5 10 (17:00) 5 (17:00) 0 0 0 0 0
13-04-2019 27.1 (17:30) 8.2 (00:00) 17.7 10.56 (14:10) 5.28 (14:10) 0 0 0 0 0
12-04-2019 23.9 (16:40) 9.1 (00:00) 16.5 11.39 (14:50) 6.94 (14:10) 0 0 0 0 0
11-04-2019 22.6 (16:20) 9.7 (00:00) 16.2 11.94 (16:10) 7.5 (12:40) 0 0 0 0 0
10-04-2019 20.4 (14:10) 8.8 (00:00) 14.6 18.33 (18:50) 10.83 (18:40) 0.4 0 0 0 0.4
09-04-2019 22.7 (16:30) 10.3 (00:00) 16.5 11.67 (18:40) 7.22 (18:50) 0 0 0 0 0
08-04-2019 24 (17:00) 12.4 (00:00) 18.2 9.17 (18:20) 5.28 (18:30) 0 0 0 0 0
07-04-2019 20.8 (16:40) 8.6 (00:00) 14.7 15.83 (14:30) 8.06 (14:40) 0.2 0 0 0.2 0
06-04-2019 18.2 (14:10) 6.1 (00:00) 12.2 13.89 (14:30) 7.22 (14:30) 2 0.2 0 1.8 0
05-04-2019 21.1 (14:40) 8.7 (00:00) 14.9 14.72 (15:40) 8.33 (15:50) 0.4 0 0 0.2 0.2
04-04-2019 19.7 (16:10) 10.3 (00:00) 15 9.17 (00:40) 5.28 (00:40) 0 0 0 0 0
03-04-2019 24.8 (15:20) 10.3 (00:00) 17.5 10.28 (15:20) 5 (16:20) 0.2 0.2 0 0 0
02-04-2019 23.4 (15:50) 11.5 (00:00) 17.4 5.83 (19:00) 3.33 (19:00) 0 0 0 0 0
01-04-2019 20.5 (15:20) 12.7 (00:00) 16.6 6.94 (17:10) 4.17 (20:20) 4.4 0.2 0 4 0.2
31-03-2019 13.4 (18:50) 10.4 (00:00) 11.9 6.11 (10:00) 3.89 (09:50) 17.2 0.2 8.2 8.2 0.6
30-03-2019 18.7 (14:10) 8.7 (00:00) 13.7 9.72 (14:20) 5.83 (14:50) 0 0 0 0 0
29-03-2019 18.2 (15:20) 8.4 (00:00) 13.3 10 (17:20) 6.39 (14:30) 0 0 0 0 0
28-03-2019 19.9 (14:50) 5.5 (00:00) 12.7 9.72 (16:10) 5.56 (15:10) 0 0 0 0 0
27-03-2019 19 (14:20) 6.3 (00:00) 12.7 10.28 (15:40) 6.11 (15:50) 0 0 0 0 0

Gráficas

Temp. máximas Temp. mínimas Temp. medias Precipitaciones Rachas de viento máximas Velocidades máximas media en intervalos de 10 minutos

Datos horarios

Fecha y hora oficial Temperatura (ºC) Velocidad del viento (km/h) Dirección del viento Racha (km/h) Dirección de racha Precipitación (mm) Presión (hPa) Tendencia (hPa) Humedad (%)
2019-04-25 23:00:00 16.6 13 Oeste 31 Noroeste 0 1010.8 4.6 52
2019-04-25 22:00:00 18.1 21 Noroeste 34 Noroeste 0 1009.2 3.7 48
2019-04-25 21:00:00 19.1 13 Noroeste 36 Oeste 0 1007.9 2.7 45
2019-04-25 20:00:00 23.5 15 Oeste 35 Noroeste 0 1006.2 1.2 34
2019-04-25 19:00:00 23.7 19 Oeste 35 Oeste 0 1005.5 0.1 33
2019-04-25 18:00:00 23.6 4 Este 13 Noroeste 0 1005.2 -0.1 43
2019-04-25 17:00:00 22.9 5 Sur 20 Noroeste 0 1005 0.2 47
2019-04-25 16:00:00 21.8 12 Noroeste 32 Norte 0 1005.4 0.5 51
2019-04-25 15:00:00 20.1 18 Noroeste 39 Noroeste 0 1005.3 0.3 58
2019-04-25 14:00:00 22.1 12 Sudoeste 32 Sudoeste 0 1004.8 -0.2 54
2019-04-25 13:00:00 21.7 13 Sudoeste 23 Sudoeste 0 1004.9 0.4 50
2019-04-25 12:00:00 20.5 10 Sudoeste 23 Sudoeste 0 1005 0.3 51
2019-04-25 11:00:00 18.5 6 Sudoeste 14 Sudoeste 0 1005 0.6 62
2019-04-25 10:00:00 16.4 8 Sudoeste 14 Sur 0 1004.5 0.7 71
2019-04-25 09:00:00 14.8 6 Sur 14 Sudoeste 0 1004.7 0.9 79
2019-04-25 08:00:00 12.1 2 Sudeste 9 Sur 0 1004.4 0.5 90
2019-04-25 07:00:00 11.9 3 Oeste 5 Oeste 0 1003.8 -0.3 92
2019-04-25 06:00:00 12.2 0 Calma 10 Noroeste 0 1003.8 -0.7 88
2019-04-25 05:00:00 12.3 2 Sur 8 Noroeste 0 1003.9 -0.6 89
2019-04-25 04:00:00 12.4 3 Noroeste 8 Norte 0 1004.1 -0.5 90
2019-04-25 03:00:00 12.8 2 Sudeste 6 Sudeste 0 1004.5 0.2 86
2019-04-25 02:00:00 13 7 Norte 11 Sudeste 0 1004.5 -0.3 87
2019-04-25 01:00:00 13.6 4 Sudeste 10 Sudeste 0 1004.6 0.6 84
2019-04-25 00:00:00 14.8 5 Oeste 10 Sur 0 1004.3 1.2 78
2019-04-24 23:00:00 15.1 2 Oeste 9 Norte 0 1004.8 2.3 74
2019-04-24 22:00:00 15.2 4 Norte 12 Sur 0 1004 1.9 76
2019-04-24 21:00:00 17.2 10 Sur 26 Sudeste 0 1003.1 1 65
2019-04-24 20:00:00 19.1 13 Sur 35 Sur 0 1002.5 0.3 56
2019-04-24 19:00:00 20.5 15 Sur 34 Sur 0 1002.1 -0.6 47
2019-04-24 18:00:00 21.4 17 Sur 32 Sur 0 1002.1 -1 42
2019-04-24 17:00:00 21.4 13 Sudeste 37 Sur 0 1002.2 -1.1 40
2019-04-24 16:00:00 21 16 Sur 33 Sudeste 0 1002.7 -1.3 42
2019-04-24 15:00:00 20.9 15 Sudeste 32 Sudeste 0 1003.1 -1.2 40
2019-04-24 14:00:00 20.4 13 Sudeste 31 Sur 0 1003.3 -0.8 38
2019-04-24 13:00:00 19.4 10 Sudoeste 27 Sur 0 1004 -0.1 36
2019-04-24 12:00:00 18.2 16 Sur 30 Sur 0 1004.3 0.9 38
2019-04-24 11:00:00 16.5 11 Sudoeste 19 Sudoeste 0 1004.1 1.4 44
2019-04-24 10:00:00 14.6 5 Noroeste 8 Noroeste 0 1004.1 2.2 55
2019-04-24 09:00:00 12.1 3 Sudeste 15 Norte 0 1003.4 2 63
2019-04-24 08:00:00 9.6 10 Noroeste 14 Noroeste 0 1002.7 1.7 75
2019-04-24 07:00:00 8.9 8 Oeste 14 Noroeste 0 1001.9 1.6 77
2019-04-24 06:00:00 9.3 9 Noroeste 13 Noroeste 0 1001.4 1.7 73
2019-04-24 05:00:00 9.4 10 Noroeste 12 Oeste 0 1001 1.5 74
2019-04-24 04:00:00 10.4 3 Este 14 Noroeste 0 1000.3 1.1 68
2019-04-24 03:00:00 11.5 8 Sudoeste 15 Noroeste 0 999.7 1.3 62
2019-04-24 02:00:00 12 12 Noroeste 17 Noroeste 0 999.5 1.8 59
2019-04-24 01:00:00 12.8 11 Noroeste 19 Oeste 0 999.2 3.1 57
2019-04-24 00:00:00 15 14 Oeste 24 Oeste 0 998.4 4.3 48
2019-04-23 23:00:00 15.9 13 Oeste 27 Oeste 0 997.7 4.6 44
2019-04-23 22:00:00 16 6 Noroeste 19 Sudoeste 0 996.1 3.3 54
2019-04-23 21:00:00 17.1 10 Sudoeste 21 Sudoeste 0 994.1 1.4 64
2019-04-23 20:00:00 17.5 10 Sur 32 Sur 0 993.1 0.2 64
2019-04-23 19:00:00 18.9 13 Sur 28 Sudoeste 0 992.8 -0.6 62
2019-04-23 18:00:00 19.1 11 Sur 28 Sur 0 992.7 -0.3 58
2019-04-23 17:00:00 18.3 9 Sudoeste 25 Sur 0 992.9 0.6 60
2019-04-23 16:00:00 16.9 5 Sur 34 Noroeste 0.8 993.4 1.3 73
2019-04-23 15:00:00 18.7 18 Oeste 28 Oeste 0 993 0.6 61
2019-04-23 14:00:00 21 3 Sudoeste 9 Este 0 992.3 0.2 42
2019-04-23 13:00:00 20.6 3 Este 12 Noroeste 0 992.1 0 45
2019-04-23 12:00:00 20.2 7 Noroeste 13 Noroeste 0 992.4 0.4 47
2019-04-23 11:00:00 18.2 4 Sur 10 Sur 0 992.1 0.1 60
2019-04-23 10:00:00 16.5 4 Sudoeste 8 Sudoeste 0 992.1 0.2 69
2019-04-23 09:00:00 12.6 3 Noroeste 5 Norte 0 992 0.3 91
2019-04-23 08:00:00 12.1 2 Oeste 9 Sudoeste 0 992 0 90
2019-04-23 07:00:00 12.3 5 Oeste 11 Oeste 0 991.9 -0.3 90
2019-04-23 06:00:00 12.4 5 Sur 8 Sur 0 991.7 -1.1 91
2019-04-23 05:00:00 12.8 2 Oeste 6 Sudeste 0 992 -1.2 90
2019-04-23 04:00:00 13 2 Sudeste 10 Sudeste 0 992.2 -1.4 89
2019-04-23 03:00:00 13 4 Este 6 Oeste 0 992.8 -1.1 89
2019-04-23 02:00:00 13.2 6 Oeste 8 Sudoeste 0 993.2 -0.9 88
2019-04-23 01:00:00 13 3 Oeste 4 Oeste 0 993.6 -0.4 88
2019-04-23 00:00:00 14.4 6 Sudeste 12 Este 0 993.9 0.2 81
2019-04-22 23:00:00 15.9 8 Sudoeste 17 Sudoeste 0 994.1 0.9 74
2019-04-22 22:00:00 16.7 5 Sudoeste 12 Sudoeste 0 994 0.8 69
2019-04-22 21:00:00 17.4 6 Sudoeste 15 Sudoeste 0 993.7 0.3 67
2019-04-22 20:00:00 18.6 3 Sur 11 Oeste 0 993.2 0 61
2019-04-22 19:00:00 18.7 8 Oeste 18 Oeste 0 993.2 -0.3 56
2019-04-22 18:00:00 18.9 13 Oeste 28 Noroeste 0 993.4 -0.4 53
2019-04-22 17:00:00 19.9 18 Oeste 29 Oeste 0 993.2 -1.1 51
2019-04-22 16:00:00 19.1 11 Oeste 19 Oeste 0 993.5 -1.4 56
2019-04-22 15:00:00 18.7 10 Oeste 22 Noroeste 0 993.8 -1.4 56
2019-04-22 14:00:00 18.5 14 Noroeste 27 Norte 0 994.3 -1 57
2019-04-22 13:00:00 17.5 15 Noroeste 24 Noroeste 0 994.9 -0.3 63
2019-04-22 12:00:00 14.9 4 Sur 12 Noroeste 0 995.2 0.1 76
2019-04-22 11:00:00 13.9 8 Oeste 16 Oeste 0 995.3 0.2 75
2019-04-22 10:00:00 13 8 Oeste 15 Oeste 0 995.2 0.4 83
2019-04-22 09:00:00 12.7 8 Oeste 15 Oeste 0 995.1 0 85
2019-04-22 08:00:00 11.9 7 Sudoeste 12 Sudoeste 0 995.1 -0.4 90
2019-04-22 07:00:00 11.8 6 Sudoeste 16 Oeste 0.2 994.8 -1.1 91
2019-04-22 06:00:00 12.2 8 Oeste 14 Sudoeste 0 995.1 -1.4 87
2019-04-22 05:00:00 12.2 10 Oeste 16 Sudoeste 0 995.5 -1.7 84
2019-04-22 04:00:00 12 11 Oeste 16 Oeste 0 995.9 -1.9 86
2019-04-22 03:00:00 12.1 9 Oeste 27 Noroeste 0 996.5 -1.5 85
2019-04-22 02:00:00 11.9 17 Oeste 28 Oeste 0.4 997.2 -1.4 86
2019-04-22 01:00:00 12.6 13 Oeste 21 Noroeste 0.4 997.8 -0.2 85
2019-04-22 00:00:00 12.7 14 Oeste 22 Oeste 0.6 998 -0.2 85
2019-04-21 23:00:00 13.4 14 Oeste 28 Noroeste 0 998.6 0.1 79
2019-04-21 22:00:00 13 17 Oeste 26 Noroeste 0 998 -0.7 85
2019-04-21 21:00:00 13 11 Oeste 23 Noroeste 0.2 998.2 -0.4 86
2019-04-21 20:00:00 13.3 10 Noroeste 22 Oeste 0.6 998.5 -0.4 90
2019-04-21 19:00:00 13.6 11 Oeste 20 Oeste 0.2 998.7 -0.5 88
2019-04-21 18:00:00 13.6 13 Oeste 24 Noroeste 0.8 998.6 -0.8 90
2019-04-21 17:00:00 13.5 15 Noroeste 23 Noroeste 1.6 998.9 -0.6 91
2019-04-21 16:00:00 13.8 12 Oeste 26 Noroeste 0.8 999.2 -1.2 89
2019-04-21 15:00:00 14.6 8 Noroeste 24 Noroeste 1 999.4 -1.5 86
2019-04-21 14:00:00 15.9 15 Noroeste 26 Noroeste 0 999.5 -1.9 69
2019-04-21 13:00:00 16.1 10 Noroeste 27 Noroeste 0 1000.4 -1.3 68
2019-04-21 12:00:00 16.5 15 Norte 24 Norte 0 1000.9 -1.2 66
2019-04-21 11:00:00 15 13 Noroeste 23 Norte 0 1001.4 -0.8 73
2019-04-21 10:00:00 14.6 11 Noroeste 19 Noroeste 0 1001.7 -0.2 75
2019-04-21 09:00:00 13.6 9 Noroeste 18 Noroeste 0 1002.1 -0.5 78
2019-04-21 08:00:00 13.1 8 Noroeste 13 Noroeste 0 1002.2 -1.1 81
2019-04-21 07:00:00 13.4 9 Norte 19 Norte 0 1001.9 -1.8 76
2019-04-21 06:00:00 13.4 10 Norte 21 Norte 0 1002.6 -1.8 78
2019-04-21 05:00:00 13.5 12 Norte 22 Norte 0 1003.3 -1.1 79
2019-04-21 04:00:00 13.6 15 Norte 23 Norte 0 1003.7 -1.9 79
2019-04-21 03:00:00 13.6 4 Noroeste 16 Norte 0 1004.4 -1.9 85
2019-04-21 02:00:00 13.4 8 Norte 14 Noroeste 0 1004.4 -2.3 88
2019-04-21 01:00:00 13.7 3 Sudoeste 4 Sudeste 0 1005.6 -1.1 95
2019-04-21 00:00:00 13.8 3 Noroeste 8 Noroeste 0 1006.3 0.3 93
2019-04-20 23:00:00 14 5 Oeste 8 Oeste 0 1006.7 0.9 95
2019-04-20 22:00:00 14 4 Sur 8 Sur 0 1006.7 0.9 95
2019-04-20 21:00:00 14.2 4 Sur 9 Oeste 0 1006 0.2 93
2019-04-20 20:00:00 14.2 6 Oeste 12 Oeste 0 1005.8 0.1 93
2019-04-20 19:00:00 14.1 8 Noroeste 15 Noroeste 0.2 1005.8 0.2 95
2019-04-20 18:00:00 14.1 6 Oeste 11 Oeste 0.2 1005.8 0.5 95
2019-04-20 17:00:00 14 4 Este 11 Nordeste 1.4 1005.7 0.3 96
2019-04-20 16:00:00 13.9 9 Nordeste 17 Nordeste 0.6 1005.6 0.2 95
2019-04-20 15:00:00 14 9 Nordeste 16 Este 1.6 1005.3 0 95
2019-04-20 14:00:00 14.1 9 Norte 18 Norte 2.6 1005.4 0.4 97
2019-04-20 13:00:00 13.8 6 Este 23 Nordeste 1.8 1005.4 0.9 97
2019-04-20 12:00:00 13.7 14 Nordeste 28 Nordeste 4.6 1005.3 0.8 97
2019-04-20 11:00:00 13.6 3 Este 21 Este 3.8 1005 0.8 97
2019-04-20 10:00:00 13.6 8 Nordeste 17 Nordeste 1.8 1004.5 1 97
2019-04-20 09:00:00 13.5 13 Este 28 Sudeste 2.6 1004.5 1.8 96
2019-04-20 08:00:00 13.7 16 Este 57 Nordeste 2 1004.2 1.1 94
2019-04-20 07:00:00 13.7 31 Nordeste 52 Este 4 1003.5 -0.5 93
2019-04-20 06:00:00 14 23 Nordeste 45 Nordeste 3.6 1002.7 -2.5 94
2019-04-20 05:00:00 11.9 4 Oeste 13 Noroeste 6.4 1003.1 -3.5 97
2019-04-20 04:00:00 11.7 8 Oeste 28 Oeste 11.8 1004 -3.6 97
2019-04-20 03:00:00 11.6 19 Oeste 31 Oeste 11 1005.2 -3.6 96
2019-04-20 02:00:00 11.8 9 Sudoeste 16 Sudoeste 10 1006.6 -2.7 97
2019-04-20 01:00:00 11.8 8 Oeste 23 Oeste 9.4 1007.6 -1.3 95
2019-04-20 00:00:00 12 13 Oeste 21 Noroeste 6.8 1008.8 0.9 94
2019-04-19 23:00:00 12.9 5 Oeste 14 Noroeste 1 1009.3 0.8 92
2019-04-19 22:00:00 13.4 9 Oeste 17 Oeste 0.2 1008.9 0.7 87
2019-04-19 21:00:00 13.4 8 Oeste 13 Noroeste 0 1007.9 0 90
2019-04-19 20:00:00 13.5 4 Oeste 13 Norte 0 1008.5 0.9 88
2019-04-19 19:00:00 13.4 8 Norte 14 Norte 0 1008.2 0.3 89
2019-04-19 18:00:00 13.5 7 Norte 13 Nordeste 0.2 1007.9 0.1 87
2019-04-19 17:00:00 13.4 9 Nordeste 16 Nordeste 0.6 1007.6 -0.6 91
2019-04-19 16:00:00 13.7 10 Nordeste 15 Nordeste 0.4 1007.9 -0.8 88
2019-04-19 15:00:00 14.7 5 Nordeste 8 Nordeste 0.4 1007.8 -1 85
2019-04-19 14:00:00 14.3 2 Este 6 Sudoeste 1.2 1008.2 -0.6 87
2019-04-19 13:00:00 13.9 4 Sudoeste 10 Sudoeste 1.6 1008.7 0.2 94
2019-04-19 12:00:00 13.7 3 Este 4 Este 1.4 1008.8 1 93
2019-04-19 11:00:00 13.3 2 Sudoeste 4 Sur 2 1008.8 1.3 94
2019-04-19 10:00:00 13.1 0 Calma 6 Sur 2.4 1008.5 1.6 94
2019-04-19 09:00:00 12.9 2 Oeste 7 Oeste 3.4 1007.8 1 95
2019-04-19 08:00:00 12.8 5 Oeste 9 Sudeste 3 1007.5 0.8 94
2019-04-19 07:00:00 12.8 4 Sudeste 11 Nordeste 1.2 1006.9 0.2 94
2019-04-19 06:00:00 12.9 4 Este 12 Norte 1.4 1006.8 -0.1 92
2019-04-19 05:00:00 12.7 0 Calma 12 Noroeste 0.6 1006.7 -0.5 92
2019-04-19 04:00:00 12.8 6 Norte 12 Noroeste 0 1006.7 0 87
2019-04-19 03:00:00 12.8 5 Noroeste 7 Noroeste 0 1006.9 0.3 89
2019-04-19 02:00:00 13.4 3 Sur 10 Noroeste 0 1007.2 0.8 86
2019-04-19 01:00:00 13.7 5 Noroeste 11 Noroeste 0 1006.7 0.7 84
2019-04-19 00:00:00 13.9 10 Noroeste 13 Noroeste 0 1006.6 1.7 83
2019-04-18 23:00:00 14.1 6 Oeste 12 Oeste 0 1006.4 2 80
2019-04-18 22:00:00 14 0 Calma 9 Oeste 0 1006 1.9 80
2019-04-18 21:00:00 14.9 7 Noroeste 12 Oeste 0 1004.9 0.5 77
2019-04-18 20:00:00 15.5 7 Oeste 14 Oeste 0 1004.4 -0.9 74
2019-04-18 19:00:00 14.3 5 Oeste 32 Nordeste 0 1004.1 -1 80
2019-04-18 18:00:00 14.2 6 Norte 19 Oeste 0.2 1004.4 -1.4 81
2019-04-18 17:00:00 14.5 9 Oeste 26 Noroeste 0 1005.3 0.8 75
2019-04-18 16:00:00 15.2 16 Noroeste 37 Oeste 0 1005.1 0.1 63
2019-04-18 15:00:00 16.5 24 Noroeste 36 Noroeste 0 1005.8 0.7 58
2019-04-18 14:00:00 18.2 9 Noroeste 21 Oeste 0 1004.5 -0.5 52
2019-04-18 13:00:00 18.2 10 Noroeste 15 Noroeste 0 1005 -0.7 53
2019-04-18 12:00:00 17.7 8 Noroeste 14 Noroeste 0 1005.1 0.1 56
2019-04-18 11:00:00 17.2 9 Noroeste 18 Oeste 0 1005 0.2 60
2019-04-18 10:00:00 16.5 10 Oeste 17 Oeste 0 1005.7 1.2 62
2019-04-18 09:00:00 15.9 4 Sudoeste 8 Sur 0 1005 0.3 66
2019-04-18 08:00:00 15.4 3 Sudeste 5 Sur 0 1004.8 0.2 69
2019-04-18 07:00:00 15.9 4 Sudoeste 12 Sudoeste 0 1004.5 -0.1 64
2019-04-18 06:00:00 15.2 6 Oeste 16 Sur 0 1004.7 -1.6 69
2019-04-18 05:00:00 15.1 3 Sudoeste 21 Sudoeste 0 1004.6 -2.5 70
2019-04-18 04:00:00 14.6 6 Nordeste 9 Nordeste 0 1004.6 -3.1 76
2019-04-18 03:00:00 15 3 Este 16 Noroeste 0 1006.3 -2.5 74
2019-04-18 02:00:00 15.6 10 Oeste 19 Oeste 0 1007.1 0 70
2019-04-18 01:00:00 15.2 8 Noroeste 17 Oeste 0 1007.7 1.2 76
2019-04-18 00:00:00 15.3 9 Oeste 17 Oeste 0 1008.8 2.7 78
2019-04-17 23:00:00 15.1 5 Este 13 Nordeste 0 1007.1 0.9 79
2019-04-17 22:00:00 15.5 8 Nordeste 19 Este 0 1006.5 0.1 79
2019-04-17 21:00:00 15.8 14 Este 30 Este 0 1006.1 -0.3 78
2019-04-17 20:00:00 16.5 21 Este 35 Nordeste 0 1006.2 -0.6 72
2019-04-17 19:00:00 17.9 22 Este 35 Nordeste 0 1006.4 -1 64
2019-04-17 18:00:00 19.2 19 Este 34 Este 0 1006.4 -1.7 59
2019-04-17 17:00:00 20.3 20 Este 36 Este 0 1006.8 -2 56
2019-04-17 16:00:00 20.9 21 Este 33 Nordeste 0 1007.4 -2.3 51
2019-04-17 15:00:00 21.6 16 Este 33 Este 0 1008.1 -2.1 46
2019-04-17 14:00:00 20.9 18 Este 35 Este 0 1008.8 -1.7 48
2019-04-17 13:00:00 20.7 15 Este 28 Este 0 1009.7 -1.1 48
2019-04-17 12:00:00 19.6 9 Nordeste 26 Nordeste 0 1010.2 -0.8 56
2019-04-17 11:00:00 17.5 15 Este 24 Este 0 1010.5 -0.4 60
2019-04-17 10:00:00 16.9 15 Nordeste 24 Nordeste 0 1010.8 0.2 66
2019-04-17 09:00:00 16.1 9 Este 15 Este 0 1011 0.4 75
2019-04-17 08:00:00 15.2 6 Este 14 Este 0 1010.9 0 79
2019-04-17 07:00:00 15.1 6 Este 15 Nordeste 0 1010.6 -0.6 79
2019-04-17 06:00:00 15.3 5 Este 10 Nordeste 0 1010.6 -1 80
2019-04-17 05:00:00 15.4 8 Nordeste 16 Nordeste 0 1010.9 -1.1 80
2019-04-17 04:00:00 15.4 9 Nordeste 20 Nordeste 0 1011.2 -1 84
2019-04-17 03:00:00 15.6 8 Nordeste 20 Nordeste 0 1011.6 -0.9 84
2019-04-17 02:00:00 15.4 10 Este 20 Este 0 1012 -0.5 85
2019-04-17 01:00:00 15.5 11 Nordeste 16 Este 0 1012.2 0.5 84
2019-04-17 00:00:00 15.3 8 Este 17 Nordeste 0 1012.5 1.4 82
2019-04-16 23:00:00 15.6 11 Nordeste 17 Este 0 1012.5 2 85
2019-04-16 22:00:00 16.1 10 Este 23 Nordeste 0 1011.7 1.6 80
2019-04-16 21:00:00 17.1 12 Este 26 Este 0 1011.1 0.9 73
2019-04-16 20:00:00 18.7 15 Este 29 Este 0 1010.5 0.2 57
2019-04-16 19:00:00 19.8 22 Este 34 Este 0 1010.1 -0.1 53
2019-04-16 18:00:00 20.5 21 Este 39 Este 0 1010.2 0.1 54
2019-04-16 17:00:00 21.4 23 Este 40 Este 0 1010.3 0 53
2019-04-16 16:00:00 22.9 27 Este 43 Este 0 1010.2 -0.7 51
2019-04-16 15:00:00 25.4 23 Este 40 Nordeste 0 1010.1 -1.2 35
2019-04-16 14:00:00 25.5 7 Este 20 Este 0 1010.3 -1.1 20
2019-04-16 13:00:00 24.4 8 Norte 25 Noroeste 0 1010.9 -0.5 23
2019-04-16 12:00:00 23.3 15 Norte 26 Norte 0 1011.3 -0.2 29
2019-04-16 11:00:00 21.8 15 Noroeste 27 Noroeste 0 1011.4 0.9 37
2019-04-16 10:00:00 19.1 8 Sudoeste 16 Norte 0 1011.4 1.7 51
2019-04-16 09:00:00 16.3 5 Sudeste 12 Sur 0 1011.5 1.9 75
2019-04-16 08:00:00 14.2 7 Oeste 10 Oeste 0 1010.5 1.3 79
2019-04-16 07:00:00 13.1 5 Oeste 10 Sur 0 1009.7 0.9 91
2019-04-16 06:00:00 12.9 4 Sudoeste 10 Oeste 0 1009.6 0.6 91
2019-04-16 05:00:00 13.5 8 Oeste 13 Oeste 0 1009.2 0.1 88
2019-04-16 04:00:00 13.9 4 Oeste 13 Noroeste 0 1008.8 -0.5 91
2019-04-16 03:00:00 14.1 6 Noroeste 9 Noroeste 0 1009 0.1 89
2019-04-16 02:00:00 14.3 4 Oeste 6 Noroeste 0 1009.1 0.8 88
2019-04-16 01:00:00 14.9 4 Nordeste 13 Nordeste 0 1009.3 1.7 89
2019-04-16 00:00:00 15.5 8 Nordeste 21 Nordeste 0 1008.9 2.1 87
2019-04-15 23:00:00 16.1 12 Nordeste 19 Nordeste 0 1008.3 2.3 84
2019-04-15 22:00:00 16.9 12 Nordeste 25 Este 0 1007.6 2.1 75
2019-04-15 21:00:00 17.7 16 Nordeste 27 Nordeste 0 1006.8 1.4 70
2019-04-15 20:00:00 19.7 16 Este 30 Este 0 1006 0.4 56
2019-04-15 19:00:00 21.7 18 Este 34 Este 0 1005.5 -0.3 48
2019-04-15 18:00:00 22.8 16 Este 26 Este 0 1005.4 -0.9 46
2019-04-15 17:00:00 23.4 14 Este 24 Este 0 1005.6 -1.2 45
2019-04-15 16:00:00 24.1 11 Sudeste 24 Este 0 1005.8 -1.3 44
2019-04-15 15:00:00 24.5 13 Este 31 Nordeste 0 1006.3 -1 45
2019-04-15 14:00:00 23.2 21 Nordeste 34 Nordeste 0 1006.8 -0.6 52
2019-04-15 13:00:00 22.1 21 Nordeste 34 Nordeste 0 1007.1 -0.3 57
2019-04-15 12:00:00 21.8 22 Nordeste 32 Nordeste 0 1007.3 0.2 58
2019-04-15 11:00:00 22.2 16 Este 26 Este 0 1007.4 0.7 44
2019-04-15 10:00:00 20.1 8 Nordeste 13 Este 0 1007.4 1.1 46
2019-04-15 09:00:00 16.7 0 Calma 3 Este 0 1007.1 0.9 56
2019-04-15 08:00:00 15.8 5 Noroeste 10 Noroeste 0 1006.7 0 56
2019-04-15 07:00:00 15.3 2 Sur 7 Norte 0 1006.3 -0.6 60
2019-04-15 06:00:00 15.6 0 Calma 6 Sudoeste 0 1006.2 -1.1 54
2019-04-15 05:00:00 16.2 4 Sudoeste 10 Noroeste 0 1006.7 -1.1 52
2019-04-15 04:00:00 16.9 5 Oeste 13 Oeste 0 1006.9 -1.2 49
2019-04-15 03:00:00 15.8 3 Sudoeste 8 Sudoeste 0 1007.3 -0.7 57
2019-04-15 02:00:00 16.5 3 Sur 11 Oeste 0 1007.8 -0.1 55
2019-04-15 01:00:00 17.6 4 Oeste 12 Sudoeste 0 1008.1 0.6 51
2019-04-15 00:00:00 17.8 3 Sudeste 7 Sudeste 0 1008 1.3 49
2019-04-14 23:00:00 19.8 3 Sur 10 Sudoeste 0 1007.9 1.9 38
2019-04-14 22:00:00 22 5 Oeste 12 Sudoeste 0 1007.5 1.6 31
2019-04-14 21:00:00 23.5 5 Sur 18 Sur 0 1006.7 0.6 22
2019-04-14 20:00:00 25.7 12 Sur 26 Sur 0 1006 -0.3 18
2019-04-14 19:00:00 27.5 14 Sur 27 Sur 0 1005.9 -1 18
2019-04-14 18:00:00 28.3 17 Sur 31 Sur 0 1006.1 -1.8 17
2019-04-14 17:00:00 28.8 18 Sur 36 Sur 0 1006.3 -2.2 15
2019-04-14 16:00:00 29.2 9 Sur 22 Oeste 0 1006.9 -2.3 15
2019-04-14 15:00:00 28.4 5 Sudeste 17 Oeste 0 1007.9 -2.2 17
2019-04-14 14:00:00 27.7 7 Sudeste 22 Oeste 0 1008.5 -2 20
2019-04-14 13:00:00 26.2 5 Sur 14 Sudoeste 0 1009.2 -1.3 22
2019-04-14 12:00:00 23.9 5 Oeste 13 Sudoeste 0 1010.1 -0.2 27
2019-04-14 11:00:00 21.5 6 Noroeste 14 Oeste 0 1010.5 0.4 34
2019-04-14 10:00:00 18.1 5 Sudoeste 9 Sudoeste 0 1010.5 0.6 42
2019-04-14 09:00:00 13.1 6 Sur 9 Sur 0 1010.3 0.6 61
2019-04-14 08:00:00 11.5 3 Sudoeste 10 Sudoeste 0 1010.1 0.2 65
2019-04-14 07:00:00 9.7 4 Oeste 6 Sudoeste 0 1009.9 -0.1 77
2019-04-14 06:00:00 11.1 4 Oeste 13 Noroeste 0 1009.7 -0.7 68
2019-04-14 05:00:00 11.3 9 Noroeste 14 Noroeste 0 1009.9 -1.2 66
2019-04-14 04:00:00 12.5 6 Sudoeste 9 Oeste 0 1010 -1.3 66
2019-04-14 03:00:00 12.5 4 Oeste 7 Oeste 0 1010.4 -1 69
2019-04-14 02:00:00 13.7 5 Sudoeste 9 Oeste 0 1011.1 -0.2 66
2019-04-14 01:00:00 13.5 6 Oeste 7 Oeste 0 1011.3 0.7 66
2019-04-14 00:00:00 15 2 Este 14 Nordeste 0 1011.4 2 62
2019-04-13 23:00:00 15.8 10 Nordeste 19 Nordeste 0 1011.3 2.7 60
2019-04-13 22:00:00 17.1 13 Nordeste 21 Nordeste 0 1010.6 2.7 55
2019-04-13 21:00:00 20.5 4 Sur 17 Sudeste 0 1009.4 1.5 24
2019-04-13 20:00:00 23.4 10 Sur 27 Sudeste 0 1008.6 0.4 18
2019-04-13 19:00:00 25.2 14 Sudeste 27 Norte 0 1007.9 -0.9 17
2019-04-13 18:00:00 26.6 12 Norte 23 Noroeste 0 1007.9 -1.5 9
2019-04-13 17:00:00 26.8 12 Noroeste 23 Noroeste 0 1008.2 -1.9 9
2019-04-13 16:00:00 26.1 8 Oeste 26 Norte 0 1008.8 -2.1 12
2019-04-13 15:00:00 25.5 8 Noroeste 38 Norte 0 1009.4 -1.8 14
2019-04-13 14:00:00 24.4 15 Noroeste 29 Norte 0 1010.1 -1.3 16
2019-04-13 13:00:00 23.5 14 Noroeste 33 Noroeste 0 1010.9 -0.4 17
2019-04-13 12:00:00 22.2 9 Noroeste 21 Noroeste 0 1011.2 0 23
2019-04-13 11:00:00 19.4 11 Noroeste 18 Noroeste 0 1011.4 0.8 31
2019-04-13 10:00:00 15.7 4 Sur 7 Sur 0 1011.3 1.4 45
2019-04-13 09:00:00 13.6 0 Calma 5 Oeste 0 1011.2 1.7 57
2019-04-13 08:00:00 8.8 4 Oeste 6 Sudoeste 0 1010.6 1.1 78
2019-04-13 07:00:00 8.7 3 Sudoeste 6 Noroeste 0 1009.9 0.1 75
2019-04-13 06:00:00 9.1 2 Oeste 8 Oeste 0 1009.5 -0.6 80
2019-04-13 05:00:00 10.1 4 Oeste 9 Oeste 0 1009.5 -1.1 79
2019-04-13 04:00:00 11.4 7 Oeste 10 Sudoeste 0 1009.8 -0.7 75
2019-04-13 03:00:00 11.7 5 Oeste 8 Oeste 0 1010.1 -0.3 80
2019-04-13 02:00:00 12.8 6 Oeste 9 Oeste 0 1010.6 0.5 77
2019-04-13 01:00:00 12.7 4 Oeste 5 Oeste 0 1010.5 0.9 81
2019-04-13 00:00:00 13.4 3 Norte 6 Norte 0 1010.4 1.8 77
2019-04-12 23:00:00 14.4 5 Nordeste 16 Nordeste 0 1010.1 2.3 76
2019-04-12 22:00:00 15.7 12 Nordeste 25 Nordeste 0 1009.6 2.3 70
2019-04-12 21:00:00 17.9 15 Nordeste 23 Nordeste 0 1008.6 1.2 55
2019-04-12 20:00:00 20.3 12 Nordeste 24 Este 0 1007.8 0.5 31
2019-04-12 19:00:00 22.3 11 Nordeste 30 Noroeste 0 1007.3 -0.7 25
2019-04-12 18:00:00 23.5 17 Norte 38 Norte 0 1007.4 -1.3 16
2019-04-12 17:00:00 23.6 22 Norte 37 Norte 0 1007.3 -1.7 16
2019-04-12 16:00:00 23.6 18 Noroeste 33 Noroeste 0 1008 -1.6 16
2019-04-12 15:00:00 22.8 18 Noroeste 41 Noroeste 0 1008.7 -1.4 17
2019-04-12 14:00:00 21.6 20 Noroeste 37 Norte 0 1009 -1.3 22
2019-04-12 13:00:00 20.6 20 Noroeste 38 Noroeste 0 1009.6 -0.5 23
2019-04-12 12:00:00 19.1 14 Noroeste 26 Norte 0 1010.1 -0.1 29
2019-04-12 11:00:00 17.4 10 Noroeste 19 Norte 0 1010.3 0.4 33
2019-04-12 10:00:00 15.6 11 Oeste 22 Oeste 0 1010.1 0.8 39
2019-04-12 09:00:00 13.2 10 Oeste 17 Oeste 0 1010.2 1.1 45
2019-04-12 08:00:00 10 3 Noroeste 11 Oeste 0 1009.9 0.6 58
2019-04-12 07:00:00 11.5 8 Oeste 14 Oeste 0 1009.3 0.1 50
2019-04-12 06:00:00 9.1 3 Oeste 8 Oeste 0 1009.1 -0.2 58
2019-04-12 05:00:00 9.7 0 Calma 7 Oeste 0 1009.3 -0.2 56
2019-04-12 04:00:00 11.4 4 Oeste 9 Sudoeste 0 1009.2 0 51
2019-04-12 03:00:00 11.7 5 Noroeste 10 Noroeste 0 1009.3 0.2 48
2019-04-12 02:00:00 11.9 3 Oeste 8 Oeste 0 1009.5 0.8 47
2019-04-12 01:00:00 13 7 Oeste 9 Oeste 0 1009.2 1 42
2019-04-12 00:00:00 14.4 5 Oeste 11 Oeste 0 1009.1 1.3 40
2019-04-11 23:00:00 16.2 4 Sur 14 Noroeste 0 1008.7 1.9 32
2019-04-11 22:00:00 17.2 8 Noroeste 21 Noroeste 0 1008.2 1.2 29
2019-04-11 21:00:00 18.9 14 Noroeste 26 Oeste 0 1007.8 0.8 27
2019-04-11 20:00:00 20.7 15 Noroeste 36 Noroeste 0 1006.8 -0.4 22
2019-04-11 19:00:00 21.7 22 Noroeste 41 Noroeste 0 1007 -0.5 19
2019-04-11 18:00:00 22.2 23 Noroeste 41 Noroeste 0 1007 -1 18
2019-04-11 17:00:00 22.4 18 Noroeste 43 Oeste 0 1007.2 -1.2 18
2019-04-11 16:00:00 22.2 21 Oeste 38 Noroeste 0 1007.5 -1.5 18
2019-04-11 15:00:00 21.3 20 Noroeste 37 Noroeste 0 1008 -1.2 25
2019-04-11 14:00:00 20.1 20 Noroeste 35 Noroeste 0 1008.4 -1 29
2019-04-11 13:00:00 18.8 24 Noroeste 42 Noroeste 0 1009 -0.4 31
2019-04-11 12:00:00 17.6 22 Noroeste 41 Noroeste 0 1009.2 0.1 37
2019-04-11 11:00:00 15.9 19 Noroeste 38 Noroeste 0 1009.4 0.6 43
2019-04-11 10:00:00 14.9 13 Noroeste 26 Noroeste 0 1009.4 1.1 48
2019-04-11 09:00:00 12.7 8 Sudoeste 15 Sudoeste 0 1009.1 1 57
2019-04-11 08:00:00 9.7 3 Sudoeste 15 Noroeste 0 1008.8 1.1 70
2019-04-11 07:00:00 10.8 8 Oeste 17 Oeste 0 1008.3 0.8 65
2019-04-11 06:00:00 11 6 Sudoeste 24 Noroeste 0 1008.1 0.3 62
2019-04-11 05:00:00 11.8 8 Noroeste 19 Noroeste 0 1007.7 -0.5 61
2019-04-11 04:00:00 10.7 11 Oeste 20 Oeste 0 1007.5 -0.6 68
2019-04-11 03:00:00 10.3 5 Oeste 15 Noroeste 0 1007.8 -0.3 71
2019-04-11 02:00:00 10.8 8 Sudeste 19 Oeste 0 1008.2 0.3 67
2019-04-11 01:00:00 11.5 8 Noroeste 23 Noroeste 0 1008.1 0.8 69
2019-04-11 00:00:00 11 9 Noroeste 18 Noroeste 0 1008.1 1.1 69
2019-04-10 23:00:00 13.1 6 Oeste 19 Oeste 0 1007.9 1.4 58
2019-04-10 22:00:00 13.4 11 Oeste 21 Oeste 0 1007.3 0.4 61
2019-04-10 21:00:00 13.3 10 Oeste 18 Oeste 0 1007 1.3 63
2019-04-10 20:00:00 14.1 11 Oeste 21 Norte 0 1006.5 1.8 63
2019-04-10 19:00:00 12.2 31 Noroeste 66 Noroeste 0.4 1006.9 1.5 70
2019-04-10 18:00:00 16.5 26 Noroeste 48 Norte 0 1005.7 -0.3 39
2019-04-10 17:00:00 19.3 11 Norte 29 Norte 0 1004.7 -1.3 29
2019-04-10 16:00:00 19.9 16 Noroeste 40 Noroeste 0 1005.4 -1.1 25
2019-04-10 15:00:00 19.2 19 Noroeste 36 Noroeste 0 1006 -0.9 27
2019-04-10 14:00:00 19.8 20 Noroeste 37 Norte 0 1006 -1 29
2019-04-10 13:00:00 19 17 Noroeste 37 Noroeste 0 1006.5 -0.4 31
2019-04-10 12:00:00 18.7 20 Noroeste 33 Noroeste 0 1006.9 0.2 34
2019-04-10 11:00:00 17.6 9 Noroeste 19 Noroeste 0 1007 0.8 38
2019-04-10 10:00:00 15.7 8 Noroeste 13 Noroeste 0 1006.9 0.8 43
2019-04-10 09:00:00 12.4 3 Sudeste 9 Oeste 0 1006.7 0.6 60
2019-04-10 08:00:00 8.8 3 Noroeste 12 Sudoeste 0 1006.2 0.1 70
2019-04-10 07:00:00 10 4 Oeste 11 Noroeste 0 1006.1 -0.1 64
2019-04-10 06:00:00 10.9 8 Noroeste 12 Oeste 0 1006.1 -0.2 59
2019-04-10 05:00:00 10.1 5 Sudoeste 7 Sudoeste 0 1006.1 -0.6 65
2019-04-10 04:00:00 10.9 5 Oeste 9 Noroeste 0 1006.2 -0.6 62
2019-04-10 03:00:00 11.9 8 Noroeste 10 Noroeste 0 1006.3 -0.6 56
2019-04-10 02:00:00 12.5 6 Noroeste 11 Oeste 0 1006.7 -0.3 54
2019-04-10 01:00:00 14.2 6 Oeste 18 Oeste 0 1006.8 0.2 48
2019-04-10 00:00:00 15 11 Oeste 24 Oeste 0 1006.9 1.3 45
2019-04-09 23:00:00 15.4 12 Oeste 23 Oeste 0 1007 1.9 44
2019-04-09 22:00:00 15.4 9 Noroeste 17 Norte 0 1006.6 1.5 47
2019-04-09 21:00:00 16.7 9 Noroeste 21 Noroeste 0 1005.6 1 39
2019-04-09 20:00:00 18.8 15 Oeste 41 Oeste 0 1005.1 0.8 30
2019-04-09 19:00:00 19.3 24 Noroeste 42 Noroeste 0 1005.1 0.2 34
2019-04-09 18:00:00 19.9 18 Noroeste 39 Oeste 0 1004.6 -0.9 28
2019-04-09 17:00:00 21.5 15 Oeste 32 Oeste 0 1004.3 -1.7 20
2019-04-09 16:00:00 22.3 17 Oeste 36 Oeste 0 1004.9 -2 21
2019-04-09 15:00:00 22.3 16 Oeste 27 Oeste 0 1005.5 -2.1 22
2019-04-09 14:00:00 20.6 10 Noroeste 24 Sudoeste 0 1006 -2.1 26
2019-04-09 13:00:00 20.5 10 Oeste 25 Sudoeste 0 1006.9 -1.1 27
2019-04-09 12:00:00 19.3 7 Oeste 21 Noroeste 0 1007.6 -0.4 32
2019-04-09 11:00:00 17.4 9 Noroeste 20 Norte 0 1008.1 0.7 40
2019-04-09 10:00:00 16.2 6 Noroeste 13 Noroeste 0 1008 1.5 46
2019-04-09 09:00:00 13.8 6 Noroeste 11 Oeste 0 1008 1.6 56
2019-04-09 08:00:00 10.4 5 Norte 10 Nordeste 0 1007.4 1.1 70
2019-04-09 07:00:00 12.7 7 Noroeste 21 Oeste 0 1006.5 0 60
2019-04-09 06:00:00 13.4 14 Oeste 24 Oeste 0 1006.4 0 57
2019-04-09 05:00:00 14.1 8 Oeste 23 Oeste 0 1006.3 -0.1 58
2019-04-09 04:00:00 13.6 4 Oeste 19 Noroeste 0 1006.5 0.8 63
2019-04-09 03:00:00 14.6 12 Noroeste 36 Noroeste 0 1006.4 0.9 59
2019-04-09 02:00:00 16.7 15 Noroeste 23 Oeste 0 1006.4 0.5 55
2019-04-09 01:00:00 17.1 14 Oeste 20 Noroeste 0 1005.7 0.1 52
2019-04-09 00:00:00 17.3 12 Oeste 21 Oeste 0 1005.5 0.6 57
2019-04-08 23:00:00 17.5 6 Sudoeste 13 Sur 0 1005.9 0.8 58
2019-04-08 22:00:00 17.4 4 Noroeste 6 Noroeste 0 1005.6 1.1 60
2019-04-08 21:00:00 18.3 2 Nordeste 7 Sur 0 1004.9 0.4 57
2019-04-08 20:00:00 19.9 2 Nordeste 18 Norte 0 1005.1 0.5 49
2019-04-08 19:00:00 20.2 13 Noroeste 33 Noroeste 0 1004.5 -0.7 48
2019-04-08 18:00:00 22.6 8 Noroeste 19 Oeste 0 1004.5 -1.6 37
2019-04-08 17:00:00 23.9 9 Oeste 26 Oeste 0 1004.6 -2.1 32
2019-04-08 16:00:00 23.2 11 Oeste 19 Oeste 0 1005.2 -2 34
2019-04-08 15:00:00 21.9 7 Oeste 21 Oeste 0 1006.1 -1.6 38
2019-04-08 14:00:00 21 9 Sudoeste 15 Oeste 0 1006.7 -0.8 41
2019-04-08 13:00:00 18.6 3 Sudeste 9 Sur 0 1007.2 -0.3 52
2019-04-08 12:00:00 16.7 5 Sur 12 Sudoeste 0 1007.7 0.3 60
2019-04-08 11:00:00 14.8 4 Norte 12 Noroeste 0 1007.5 0.6 66
2019-04-08 10:00:00 13.7 3 Oeste 10 Sudoeste 0 1007.5 0.9 67
2019-04-08 09:00:00 12.8 3 Sudoeste 12 Sur 0 1007.4 0.6 71
2019-04-08 08:00:00 12.5 7 Noroeste 10 Noroeste 0 1006.9 -0.1 72
2019-04-08 07:00:00 13 4 Oeste 8 Oeste 0 1006.6 -0.5 68
2019-04-08 06:00:00 13.4 6 Oeste 10 Oeste 0 1006.8 -0.8 65
2019-04-08 05:00:00 13.4 6 Sur 8 Sur 0 1007 -0.9 66
2019-04-08 04:00:00 13.7 2 Este 6 Noroeste 0 1007.1 -1.2 64
2019-04-08 03:00:00 13.7 2 Oeste 7 Sur 0 1007.6 -0.7 63
2019-04-08 02:00:00 14.5 2 Sudoeste 9 Oeste 0 1007.9 -0.2 56
2019-04-08 01:00:00 14.6 5 Sudoeste 9 Sur 0 1008.3 0.4 55
2019-04-08 00:00:00 15.8 5 Oeste 8 Oeste 0 1008.3 1.4 48
2019-04-07 23:00:00 16.4 6 Noroeste 14 Noroeste 0 1008.1 1.7 46
2019-04-07 22:00:00 17 8 Noroeste 16 Noroeste 0 1007.9 2.2 45
2019-04-07 21:00:00 17.8 13 Noroeste 21 Noroeste 0 1006.9 1.7 38
2019-04-07 20:00:00 18.6 12 Noroeste 24 Noroeste 0 1006.4 1.3 34
2019-04-07 19:00:00 19.2 18 Noroeste 39 Oeste 0 1005.7 0.8 30
2019-04-07 18:00:00 19.9 18 Noroeste 40 Oeste 0 1005.2 0.1 27
2019-04-07 17:00:00 20.3 25 Oeste 52 Noroeste 0 1005.1 0.1 26
2019-04-07 16:00:00 20.1 23 Oeste 48 Oeste 0 1004.9 -0.2 27
2019-04-07 15:00:00 19.1 25 Oeste 57 Oeste 0 1005.1 0.5 32
2019-04-07 14:00:00 18.6 26 Oeste 44 Oeste 0.2 1005 0.4 36
2019-04-07 13:00:00 16.8 17 Oeste 37 Oeste 0 1005.1 1 41
2019-04-07 12:00:00 15.7 22 Noroeste 45 Noroeste 0 1004.6 1 47
2019-04-07 11:00:00 13.2 17 Oeste 42 Noroeste 0 1004.6 1.8 55
2019-04-07 10:00:00 11.8 19 Noroeste 41 Noroeste 0 1004.1 2.4 64
2019-04-07 09:00:00 9.9 12 Noroeste 27 Norte 0 1003.6 2.4 76
2019-04-07 08:00:00 8.6 4 Oeste 12 Noroeste 0 1002.8 1.7 72
2019-04-07 07:00:00 10.4 8 Oeste 19 Oeste 0 1001.7 1.3 62
2019-04-07 06:00:00 10.4 10 Sudoeste 21 Sudoeste 0 1001.2 0.4 58
2019-04-07 05:00:00 10.2 10 Oeste 21 Oeste 0 1001.1 0.2 58
2019-04-07 04:00:00 10.6 12 Sudoeste 23 Oeste 0 1000.4 -0.6 56
2019-04-07 03:00:00 11.2 15 Sudoeste 26 Sudoeste 0 1000.8 0 53
2019-04-07 02:00:00 11.2 15 Sudoeste 29 Sudoeste 0 1000.9 0.2 54
2019-04-07 01:00:00 10.5 5 Noroeste 14 Oeste 0 1001 1 58
2019-04-07 00:00:00 12.7 6 Oeste 27 Oeste 0 1000.8 1.2 48
2019-04-06 23:00:00 13 14 Oeste 27 Oeste 0 1000.7 1.4 49
2019-04-06 22:00:00 13.3 15 Oeste 27 Oeste 0 1000 1.5 48
2019-04-06 21:00:00 14 15 Noroeste 26 Oeste 0 999.6 1.6 45
2019-04-06 20:00:00 14.3 6 Oeste 14 Sudeste 0 999.3 2.3 53
2019-04-06 19:00:00 14.9 9 Noroeste 38 Noroeste 0 998.5 0.5 50
2019-04-06 18:00:00 15.5 23 Noroeste 49 Noroeste 0.2 998 -0.7 46
2019-04-06 17:00:00 16.9 8 Sudoeste 18 Sudoeste 0 997 -0.8 42
2019-04-06 16:00:00 16.5 6 Sudoeste 13 Oeste 0 998 -0.6 48
2019-04-06 15:00:00 12.8 8 Oeste 50 Oeste 1.6 998.7 -0.6 71
2019-04-06 14:00:00 18.1 13 Sudoeste 26 Sudoeste 0 997.8 -1.6 31
2019-04-06 13:00:00 17.7 12 Sur 25 Sudoeste 0 998.6 -0.8 32
2019-04-06 12:00:00 16.4 8 Sudoeste 24 Oeste 0 999.3 0.1 36
2019-04-06 11:00:00 15.3 4 Sur 13 Sudoeste 0 999.4 0.9 41
2019-04-06 10:00:00 12.5 3 Este 9 Sur 0 999.4 1.7 54
2019-04-06 09:00:00 8.7 4 Sur 11 Sur 0 999.2 2.3 70
2019-04-06 08:00:00 6.3 5 Noroeste 8 Noroeste 0 998.5 1.8 82
2019-04-06 07:00:00 7.7 6 Oeste 10 Sudoeste 0 997.7 0.8 74
2019-04-06 06:00:00 8.9 8 Sudoeste 13 Noroeste 0 996.9 0 68
2019-04-06 05:00:00 8.2 4 Oeste 16 Noroeste 0.2 996.7 -0.5 75
2019-04-06 04:00:00 9.3 5 Oeste 12 Sudoeste 0 996.9 -0.1 67
2019-04-06 03:00:00 7.6 4 Oeste 8 Sur 0 996.9 -0.1 77
2019-04-06 02:00:00 8.1 5 Sudeste 13 Sudeste 0 997.2 0.5 78
2019-04-06 01:00:00 8.5 6 Oeste 10 Noroeste 0 997 1.3 78
2019-04-06 00:00:00 8.7 5 Noroeste 10 Noroeste 0 997 2.6 78
2019-04-05 23:00:00 10.1 6 Noroeste 9 Noroeste 0 996.7 3.8 73
2019-04-05 22:00:00 11 8 Noroeste 36 Noroeste 0 995.7 2.9 66
2019-04-05 21:00:00 13 13 Noroeste 29 Oeste 0.2 994.4 2 73
2019-04-05 20:00:00 13.7 4 Este 10 Norte 0 992.9 -1.3 71
2019-04-05 19:00:00 13.6 5 Nordeste 8 Nordeste 0 992.8 -0.8 76
2019-04-05 18:00:00 13.2 6 Sudeste 13 Sur 0 992.4 -0.6 77
2019-04-05 17:00:00 12.7 8 Oeste 41 Noroeste 0.2 994.2 0.9 77
2019-04-05 16:00:00 13.6 27 Oeste 53 Sudoeste 0 993.6 -0.6 63
2019-04-05 15:00:00 19.9 17 Sur 37 Sur 0 993 -2.2 33
2019-04-05 14:00:00 20.3 14 Sudeste 37 Sur 0 993.3 -2.3 36
2019-04-05 13:00:00 19.5 9 Este 19 Sudeste 0 994.2 -1.6 39
2019-04-05 12:00:00 17.4 5 Sur 12 Sudoeste 0 995.2 -0.6 45
2019-04-05 11:00:00 15.7 4 Sudoeste 9 Sudoeste 0 995.6 -0.3 59
2019-04-05 10:00:00 13.5 5 Sudoeste 10 Oeste 0 995.8 0 70
2019-04-05 09:00:00 12.2 3 Sur 13 Oeste 0 995.8 0.1 76
2019-04-05 08:00:00 10.7 7 Oeste 11 Noroeste 0 995.9 -0.1 82
2019-04-05 07:00:00 11.4 2 Noroeste 8 Oeste 0 995.8 -0.4 80
2019-04-05 06:00:00 11.8 3 Sur 9 Norte 0 995.7 -1 78
2019-04-05 05:00:00 11.5 5 Nordeste 8 Nordeste 0 996 -1 81
2019-04-05 04:00:00 11.2 4 Norte 7 Norte 0 996.2 -1 77
2019-04-05 03:00:00 12.6 3 Este 5 Este 0 996.7 -0.7 71
2019-04-05 02:00:00 13.3 3 Este 8 Sur 0 997 -0.3 69
2019-04-05 01:00:00 14 4 Sudeste 13 Sur 0 997.2 0.2 64
2019-04-05 00:00:00 14.2 5 Sur 19 Sur 0 997.4 0.8 62
2019-04-04 23:00:00 14.3 8 Sur 18 Sur 0 997.3 0.8 61
2019-04-04 22:00:00 14.4 12 Sur 22 Sudoeste 0 997 0.8 58
2019-04-04 21:00:00 15 10 Sur 24 Sur 0 996.6 0.8 54
2019-04-04 20:00:00 15.8 13 Sur 26 Sur 0 996.5 0.7 49
2019-04-04 19:00:00 16.6 15 Sur 31 Sur 0 996.2 -0.1 49
2019-04-04 18:00:00 18.6 17 Sur 27 Sur 0 995.8 -1.3 42
2019-04-04 17:00:00 19.5 11 Sur 30 Sur 0 995.8 -2 38
2019-04-04 16:00:00 19.6 11 Sudeste 27 Sudoeste 0 996.3 -1.9 37
2019-04-04 15:00:00 18.7 11 Sudeste 24 Sudeste 0 997.1 -1.4 40
2019-04-04 14:00:00 17.8 5 Este 18 Norte 0 997.8 -0.2 28
2019-04-04 13:00:00 17.8 5 Sur 14 Sudeste 0 998.2 0.2 31
2019-04-04 12:00:00 16.6 6 Oeste 15 Sudoeste 0 998.5 0.9 45
2019-04-04 11:00:00 15.6 5 Sur 12 Sudoeste 0 998 1.2 59
2019-04-04 10:00:00 13.8 5 Oeste 10 Sudoeste 0 998 1.8 68
2019-04-04 09:00:00 11.8 6 Noroeste 9 Noroeste 0 997.6 1.8 81
2019-04-04 08:00:00 10.3 4 Norte 7 Norte 0 996.8 1.3 84
2019-04-04 07:00:00 10.9 5 Este 16 Este 0 996.2 1.1 80
2019-04-04 06:00:00 11.7 8 Este 15 Este 0 995.8 0.9 80
2019-04-04 05:00:00 12.1 8 Nordeste 19 Nordeste 0 995.5 0.7 81
2019-04-04 04:00:00 12.9 10 Nordeste 23 Este 0 995.1 0.9 84
2019-04-04 03:00:00 14.9 5 Sudeste 21 Noroeste 0 994.9 1 46
2019-04-04 02:00:00 16.3 8 Noroeste 23 Oeste 0 994.8 0.9 41
2019-04-04 01:00:00 17.9 15 Noroeste 33 Noroeste 0 994.2 0.7 34
2019-04-04 00:00:00 17.6 9 Oeste 16 Oeste 0 993.9 1.2 43
2019-04-03 23:00:00 17.6 8 Oeste 12 Oeste 0 993.9 1.6 55
2019-04-03 22:00:00 17.9 6 Oeste 12 Oeste 0 993.5 1.3 64
2019-04-03 21:00:00 20.2 4 Sur 13 Oeste 0 992.7 0 50
2019-04-03 20:00:00 22.3 9 Norte 14 Este 0 992.3 -1.5 40
2019-04-03 19:00:00 23.1 9 Este 22 Este 0 992.2 -2.6 37
2019-04-03 18:00:00 24.2 10 Sudeste 30 Sudeste 0 992.7 -3.5 33
2019-04-03 17:00:00 24.5 16 Sur 34 Sudeste 0 993.8 -3.7 32
2019-04-03 16:00:00 24.3 17 Sudeste 37 Sudeste 0 994.8 -4.1 37
2019-04-03 15:00:00 24.6 12 Sudeste 23 Sudeste 0 996.2 -4 33
2019-04-03 14:00:00 24.2 4 Sudeste 12 Sudeste 0 997.5 -3.7 32
2019-04-03 13:00:00 22.5 4 Sudoeste 11 Sudoeste 0 998.9 -2.9 38
2019-04-03 12:00:00 20.2 5 Sudoeste 10 Sudoeste 0 1000.2 -2.2 45
2019-04-03 11:00:00 16.6 3 Sudoeste 10 Sur 0 1001.2 -1.4 64
2019-04-03 10:00:00 13.7 6 Sudoeste 12 Sudoeste 0 1001.8 -0.9 75
2019-04-03 09:00:00 11.9 6 Sur 9 Sur 0 1002.4 -0.6 85
2019-04-03 08:00:00 10.8 3 Oeste 12 Noroeste 0 1002.6 -0.9 88
2019-04-03 07:00:00 11 6 Oeste 9 Noroeste 0 1002.7 -1.5 91
2019-04-03 06:00:00 11.7 4 Oeste 11 Oeste 0.2 1003 -2 89
2019-04-03 05:00:00 12.1 4 Oeste 9 Sudoeste 0 1003.5 -2 91
2019-04-03 04:00:00 12.8 4 Sur 9 Oeste 0 1004.2 -1.9 90
2019-04-03 03:00:00 13.1 6 Oeste 10 Oeste 0 1005 -1.3 90
2019-04-03 02:00:00 14 3 Este 11 Noroeste 0 1005.5 -0.7 87
2019-04-03 01:00:00 14.3 6 Nordeste 10 Nordeste 0 1006.1 0.4 86
2019-04-03 00:00:00 15 6 Este 9 Este 0 1006.3 1.2 79
2019-04-02 23:00:00 15.8 7 Norte 11 Norte 0 1006.2 1.5 75
2019-04-02 22:00:00 16.5 2 Sudeste 10 Oeste 0 1005.7 1.4 69
2019-04-02 21:00:00 18.5 10 Sudoeste 17 Sur 0 1005.1 0.5 58
2019-04-02 20:00:00 20.3 9 Sudoeste 21 Sudeste 0 1004.7 -0.6 54
2019-04-02 19:00:00 22.4 12 Sur 21 Sur 0 1004.3 -1.6 49
2019-04-02 18:00:00 22.2 8 Sur 19 Sur 0 1004.6 -2.2 46
2019-04-02 17:00:00 22.3 10 Sur 19 Oeste 0 1005.3 -2.6 48
2019-04-02 16:00:00 23.3 9 Sudoeste 19 Sur 0 1005.9 -2.8 37
2019-04-02 15:00:00 22.2 6 Oeste 14 Sudoeste 0 1006.8 -2.6 42
2019-04-02 14:00:00 20.9 6 Noroeste 15 Oeste 0 1007.9 -1.5 52
2019-04-02 13:00:00 19.8 6 Sudoeste 12 Sudoeste 0 1008.7 -0.5 58
2019-04-02 12:00:00 17.8 5 Oeste 12 Sudoeste 0 1009.4 0.2 69
2019-04-02 11:00:00 15.8 5 Sudoeste 15 Noroeste 0 1009.4 0.6 77
2019-04-02 10:00:00 14.1 8 Noroeste 13 Noroeste 0 1009.2 0.6 87
2019-04-02 09:00:00 12 7 Noroeste 9 Noroeste 0 1009.2 0.6 96
2019-04-02 08:00:00 11.5 3 Oeste 6 Oeste 0 1008.8 0 94
2019-04-02 07:00:00 12.2 4 Oeste 7 Sur 0 1008.6 -0.6 93
2019-04-02 06:00:00 13.1 3 Sur 6 Sur 0 1008.6 -1.1 92
2019-04-02 05:00:00 13.7 2 Oeste 6 Sudoeste 0 1008.8 -1.2 91
2019-04-02 04:00:00 14.2 0 Calma 5 Nordeste 0 1009.2 -0.7 89
2019-04-02 03:00:00 14.2 2 Nordeste 6 Nordeste 0 1009.7 -0.2 90
2019-04-02 02:00:00 14.1 4 Norte 9 Este 0 1010 0.1 90
2019-04-02 01:00:00 14.1 6 Nordeste 12 Este 0 1009.9 0.5 90
2019-04-02 00:00:00 14.1 8 Nordeste 14 Este 0 1009.9 1.4 89
2019-04-01 23:00:00 14.5 9 Nordeste 16 Este 0 1009.9 2 86
2019-04-01 22:00:00 14.8 9 Este 17 Este 0 1009.4 2.2 81
2019-04-01 21:00:00 15.4 12 Este 23 Este 0.2 1008.5 1.6 73
2019-04-01 20:00:00 16 11 Este 21 Este 0 1007.9 1.2 75
2019-04-01 19:00:00 17.3 8 Sudeste 22 Sudeste 0 1007.2 0.5 71
2019-04-01 18:00:00 18.5 13 Sudeste 25 Sudeste 0 1006.9 0 66
2019-04-01 17:00:00 17.9 12 Este 23 Sudeste 4 1006.7 -0.7 73
2019-04-01 16:00:00 18.5 10 Sudeste 21 Este 0 1006.7 -1.1 67
2019-04-01 15:00:00 20.1 10 Este 19 Nordeste 0 1006.9 -1.1 56
2019-04-01 14:00:00 19.5 12 Este 19 Este 0 1007.4 -0.2 65
2019-04-01 13:00:00 18.3 6 Este 10 Este 0 1007.8 0.7 66
2019-04-01 12:00:00 17 5 Sudoeste 11 Oeste 0 1008 1.5 70
2019-04-01 11:00:00 15.7 4 Sur 8 Noroeste 0 1007.6 1.7 79
2019-04-01 10:00:00 14.1 5 Oeste 9 Oeste 0 1007.1 1.4 88
2019-04-01 09:00:00 13.1 3 Sur 5 Sudoeste 0 1006.5 1 94
2019-04-01 08:00:00 12.9 0 Calma 6 Oeste 0 1005.9 0.3 94
2019-04-01 07:00:00 12.9 4 Sudoeste 9 Sudoeste 0 1005.7 0.1 95
2019-04-01 06:00:00 12.8 4 Sudoeste 5 Sur 0 1005.5 -0.1 95
2019-04-01 05:00:00 12.8 3 Sur 11 Este 0 1005.6 0.1 94
2019-04-01 04:00:00 13.2 7 Este 13 Este 0 1005.6 0.2 94
2019-04-01 03:00:00 13.5 3 Este 9 Noroeste 0.2 1005.6 0.2 92
2019-04-01 02:00:00 13.5 6 Noroeste 9 Noroeste 0 1005.5 0.2 91
2019-04-01 01:00:00 13.4 4 Noroeste 7 Noroeste 0 1005.4 0.5 93
2019-04-01 00:00:00 13.3 2 Sur 5 Sur 0 1005.4 1.3 93
2019-03-31 23:00:00 13.3 2 Sur 5 Sudoeste 0 1005.3 1.5 93
2019-03-31 22:00:00 13.1 3 Sudoeste 7 Sudoeste 0 1004.9 1.1 93
2019-03-31 21:00:00 13.3 4 Sudoeste 6 Sudoeste 0 1004.1 0.1 92
2019-03-31 20:00:00 13.4 4 Oeste 8 Oeste 0.2 1003.8 -0.3 91
2019-03-31 19:00:00 13.4 3 Oeste 7 Oeste 0.4 1003.8 -0.6 89
2019-03-31 18:00:00 13.1 5 Sudoeste 9 Oeste 0.8 1004 -1.1 91
2019-03-31 17:00:00 13 4 Oeste 13 Noroeste 1.4 1004.1 -1.9 90
2019-03-31 16:00:00 12.5 6 Oeste 13 Noroeste 2.4 1004.4 -2.2 93
2019-03-31 15:00:00 12 6 Oeste 10 Sudoeste 1.8 1005.1 -1.9 92
2019-03-31 14:00:00 11.9 4 Sudoeste 11 Oeste 0.8 1006 -1.3 92
2019-03-31 13:00:00 11.5 6 Oeste 9 Oeste 1 1006.6 -0.6 91
2019-03-31 12:00:00 11.1 4 Oeste 12 Oeste 2.8 1007 -0.1 93
2019-03-31 11:00:00 10.8 6 Sudoeste 17 Noroeste 3.4 1007.3 0.1 94
2019-03-31 10:00:00 10.4 13 Oeste 22 Noroeste 0.6 1007.2 0.2 94
2019-03-31 09:00:00 10.4 13 Noroeste 20 Oeste 0.4 1007.1 -0.1 93
2019-03-31 08:00:00 11.2 4 Oeste 9 Oeste 0.4 1007.2 -0.9 89
2019-03-31 07:00:00 11.5 4 Sudoeste 8 Sudoeste 0.6 1007 -2.3 88
2019-03-31 06:00:00 11.7 4 Oeste 8 Noroeste 0 1007.2 -3.1 87
2019-03-31 05:00:00 11.9 5 Noroeste 12 Norte 0.2 1008.1 -3.1 88
2019-03-31 03:00:00 13.1 5 Nordeste 12 Este 0 1010.3 -1.2 70
2019-03-31 01:00:00 13 2 Norte 6 Nordeste 0 1011.2 -0.4 73
2019-03-31 00:00:00 12.7 3 Nordeste 8 Nordeste 0 1011.5 -0.3 76
2019-03-30 23:00:00 12.6 4 Nordeste 9 Este 0 1011.5 -0.2 76
2019-03-30 22:00:00 13 5 Este 18 Este 0 1011.6 0.1 74
2019-03-30 21:00:00 13.5 11 Este 23 Este 0 1011.8 0.1 70
2019-03-30 20:00:00 13.9 10 Este 24 Este 0 1011.7 0.4 67
2019-03-30 19:00:00 15 15 Este 32 Este 0 1011.5 0.4 62
2019-03-30 18:00:00 16 16 Este 28 Este 0 1011.7 -0.2 53
2019-03-30 17:00:00 17.4 15 Este 33 Este 0 1011.3 -1.6 48
2019-03-30 16:00:00 18.5 18 Este 32 Este 0 1011.1 -2.6 44
2019-03-30 15:00:00 18.4 19 Este 35 Este 0 1011.9 -3.1 42
2019-03-30 14:00:00 18.5 17 Este 33 Este 0 1012.9 -2.8 43
2019-03-30 13:00:00 18 17 Este 28 Sudeste 0 1013.7 -2.4 44
2019-03-30 12:00:00 16.8 12 Este 24 Este 0 1015 -1.1 51
2019-03-30 11:00:00 15.6 10 Nordeste 19 Nordeste 0 1015.7 -0.4 55
2019-03-30 10:00:00 13.3 5 Oeste 13 Oeste 0 1016.1 0.1 58
2019-03-30 09:00:00 10.6 6 Noroeste 13 Noroeste 0 1016.1 0.3 67
2019-03-30 08:00:00 9.2 5 Oeste 12 Oeste 0 1016.1 0.3 72
2019-03-30 07:00:00 8.7 6 Noroeste 12 Oeste 0 1016 -0.1 74
2019-03-30 06:00:00 9.1 7 Oeste 13 Noroeste 0 1015.8 -1 73
2019-03-30 05:00:00 9.2 4 Oeste 22 Noroeste 0 1015.8 -1.6 75
2019-03-30 04:00:00 9.1 6 Noroeste 14 Noroeste 0 1016.1 -1.6 75
2019-03-30 03:00:00 9.5 4 Sudoeste 10 Noroeste 0 1016.8 -1.5 76
2019-03-30 02:00:00 9.4 4 Noroeste 10 Noroeste 0 1017.4 -0.8 77
2019-03-30 01:00:00 9.8 8 Noroeste 15 Noroeste 0 1017.7 -0.8 78
2019-03-30 00:00:00 10 6 Noroeste 10 Oeste 0 1018.3 0.3 76
2019-03-29 23:00:00 10.3 5 Noroeste 7 Norte 0 1018.2 0.8 76
2019-03-29 22:00:00 10.9 3 Norte 9 Este 0 1018.5 1.7 72
2019-03-29 21:00:00 12.2 7 Nordeste 16 Este 0 1018 1.3 66
2019-03-29 20:00:00 13.2 9 Nordeste 25 Este 0 1017.4 0.6 63
2019-03-29 19:00:00 14.8 16 Este 27 Este 0 1016.8 -0.2 54
2019-03-29 18:00:00 16 17 Este 36 Nordeste 0 1016.7 -0.6 48
2019-03-29 17:00:00 16.6 17 Este 30 Este 0 1016.8 -1.3 49
2019-03-29 16:00:00 17.6 18 Nordeste 35 Nordeste 0 1017 -1.7 45
2019-03-29 15:00:00 17.8 19 Nordeste 35 Este 0 1017.3 -2.1 45
2019-03-29 14:00:00 17.2 21 Nordeste 32 Este 0 1018.1 -2 47
2019-03-29 13:00:00 17.5 22 Este 34 Este 0 1018.7 -1.7 50
2019-03-29 12:00:00 16.2 13 Este 23 Este 0 1019.4 -0.7 54
2019-03-29 11:00:00 15.8 6 Este 14 Este 0 1020.1 0 51
2019-03-29 10:00:00 12.2 6 Sudoeste 15 Oeste 0 1020.4 0.7 56
2019-03-29 09:00:00 10.3 6 Oeste 14 Noroeste 0 1020.1 0.9 64
2019-03-29 08:00:00 8.9 4 Noroeste 12 Noroeste 0 1020.1 1 68
2019-03-29 07:00:00 8.5 6 Oeste 12 Oeste 0 1019.7 0.5 72
2019-03-29 06:00:00 8.4 4 Norte 13 Norte 0 1019.2 -0.2 73
2019-03-29 05:00:00 8.8 6 Norte 15 Noroeste 0 1019.1 -0.6 72
2019-03-29 04:00:00 8.9 9 Noroeste 14 Noroeste 0 1019.2 -0.7 79
2019-03-29 03:00:00 9 5 Oeste 10 Oeste 0 1019.4 -0.8 83
2019-03-29 02:00:00 8.8 4 Oeste 6 Oeste 0 1019.7 -0.5 86
2019-03-29 01:00:00 10.4 3 Noroeste 9 Noroeste 0 1019.9 -0.4 78
2019-03-29 00:00:00 10.2 6 Noroeste 8 Noroeste 0 1020.2 0.1 85
2019-03-28 23:00:00 10.2 2 Norte 6 Nordeste 0 1020.2 0.9 79
2019-03-28 22:00:00 11.3 5 Este 14 Este 0 1020.3 1.3 76
2019-03-28 21:00:00 12.8 7 Este 23 Este 0 1020.1 1.4 69
2019-03-28 20:00:00 13.9 13 Este 23 Este 0 1019.3 0.9 62
2019-03-28 19:00:00 15.7 14 Este 25 Nordeste 0 1019 0.6 49
2019-03-28 18:00:00 17.2 19 Nordeste 30 Nordeste 0 1018.7 -0.1 38
2019-03-28 17:00:00 18.5 19 Nordeste 35 Nordeste 0 1018.4 -1 30
2019-03-28 16:00:00 19.2 19 Este 33 Nordeste 0 1018.4 -1.4 23
2019-03-28 15:00:00 19.5 17 Este 30 Este 0 1018.8 -1.7 21
2019-03-28 14:00:00 19 17 Este 28 Este 0 1019.4 -1.6 17
2019-03-28 13:00:00 19.2 9 Sudeste 24 Este 0 1019.8 -1.4 17
2019-03-28 12:00:00 18.3 13 Este 20 Sudeste 0 1020.5 -0.4 16
2019-03-28 11:00:00 15.6 6 Oeste 17 Noroeste 0 1021 0.3 32
2019-03-28 10:00:00 12.7 8 Oeste 16 Oeste 0 1021.2 1 40
2019-03-28 09:00:00 9.8 7 Oeste 11 Oeste 0 1020.9 1 47
2019-03-28 08:00:00 7.2 4 Noroeste 10 Noroeste 0 1020.7 1.1 58
2019-03-28 07:00:00 5.6 5 Oeste 12 Oeste 0 1020.2 0.7 60
2019-03-28 06:00:00 5.9 7 Oeste 11 Sudoeste 0 1019.9 0.4 63
2019-03-28 05:00:00 5.8 6 Sur 10 Oeste 0 1019.6 -0.3 66
2019-03-28 04:00:00 7.2 6 Sudoeste 12 Oeste 0 1019.5 -0.5 63
2019-03-28 03:00:00 7.7 4 Sudoeste 12 Oeste 0 1019.5 -0.2 64
2019-03-28 02:00:00 7.9 6 Sudoeste 9 Sudoeste 0 1019.9 0.5 67
2019-03-28 01:00:00 8.8 2 Sur 10 Sur 0 1020 1.1 66
2019-03-28 00:00:00 9.3 4 Oeste 11 Sur 0 1019.7 1.3 67
2019-03-27 23:00:00 10.1 5 Sudoeste 6 Sudoeste 0 1019.4 1.8 65
2019-03-27 22:00:00 10.9 3 Oeste 7 Nordeste 0 1018.9 2.1 61
2019-03-27 21:00:00 12.3 5 Nordeste 13 Este 0 1018.4 2.3 54
2019-03-27 20:00:00 13.7 8 Este 26 Este 0 1017.6 1.9 49
2019-03-27 19:00:00 15 15 Este 32 Este 0 1016.8 1 42
2019-03-27 18:00:00 16.5 19 Este 36 Este 0 1016.1 0.4 37
2019-03-27 17:00:00 17.6 22 Este 36 Nordeste 0 1015.7 -0.3 33
2019-03-27 16:00:00 18.2 16 Este 37 Este 0 1015.8 -0.5 30
2019-03-27 15:00:00 18.7 17 Este 34 Sudeste 0 1015.7 -1 28
2019-03-27 14:00:00 18.5 21 Este 36 Nordeste 0 1016 -1 25
2019-03-27 13:00:00 18.6 17 Este 33 Este 0 1016.3 -0.7 30
2019-03-27 12:00:00 17.5 16 Este 27 Este 0 1016.7 -0.2 37
2019-03-27 11:00:00 16.4 15 Este 28 Nordeste 0 1017 0 38
2019-03-27 10:00:00 13.7 6 Oeste 13 Oeste 0 1017 0.7 49
2019-03-27 09:00:00 10.1 8 Oeste 15 Oeste 0 1016.9 0.7 61
2019-03-27 08:00:00 8 8 Oeste 15 Oeste 0 1017 1.1 69
2019-03-27 07:00:00 7.2 6 Sudoeste 13 Oeste 0 1016.3 0.5 73
2019-03-27 06:00:00 7.4 7 Sudoeste 10 Sudoeste 0 1016.2 0.1 73
2019-03-27 05:00:00 7.4 2 Sur 15 Noroeste 0 1015.9 -0.6 70
2019-03-27 04:00:00 7.2 6 Oeste 8 Noroeste 0 1015.8 -0.7 72
2019-03-27 03:00:00 8.1 3 Sur 8 Sur 0 1016.1 -0.3 74
2019-03-27 02:00:00 8.8 4 Noroeste 7 Sur 0 1016.5 0.9 74
2019-03-27 01:00:00 10.5 0 Calma 17 Norte 0 1016.5 1.3 69
2019-03-27 00:00:00 11.8 13 Norte 25 Norte 0 1016.4 2 65